sensor_id;sensor_type;location;lat;lon;timestamp;temperature;humidity
19734;DHT22;10018;51.230;7.860;2022-11-15T00:01:09;10.20;99.90
19734;DHT22;10018;51.230;7.860;2022-11-15T00:03:34;10.10;99.90
19734;DHT22;10018;51.230;7.860;2022-11-15T00:06:03;10.20;99.90
19734;DHT22;10018;51.230;7.860;2022-11-15T00:08:31;10.30;99.90
19734;DHT22;10018;51.230;7.860;2022-11-15T00:10:58;10.40;99.90
19734;DHT22;10018;51.230;7.860;2022-11-15T00:13:24;10.40;99.90
19734;DHT22;10018;51.230;7.860;2022-11-15T00:15:49;10.40;99.90
19734;DHT22;10018;51.230;7.860;2022-11-15T00:18:16;10.40;99.90
19734;DHT22;10018;51.230;7.860;2022-11-15T00:20:42;10.50;99.90
19734;DHT22;10018;51.230;7.860;2022-11-15T00:23:08;10.50;99.90
19734;DHT22;10018;51.230;7.860;2022-11-15T00:25:34;10.40;99.90
19734;DHT22;10018;51.230;7.860;2022-11-15T00:28:00;10.50;99.90
19734;DHT22;10018;51.230;7.860;2022-11-15T00:30:26;10.50;99.90
19734;DHT22;10018;51.230;7.860;2022-11-15T00:32:52;10.60;99.90
19734;DHT22;10018;51.230;7.860;2022-11-15T00:35:19;10.60;99.90
19734;DHT22;10018;51.230;7.860;2022-11-15T00:37:45;10.50;99.90
19734;DHT22;10018;51.230;7.860;2022-11-15T00:40:12;10.50;99.90
19734;DHT22;10018;51.230;7.860;2022-11-15T00:42:39;10.50;99.90
19734;DHT22;10018;51.230;7.860;2022-11-15T00:45:05;10.60;99.90
19734;DHT22;10018;51.230;7.860;2022-11-15T00:47:30;10.70;99.90
19734;DHT22;10018;51.230;7.860;2022-11-15T00:49:56;10.70;99.90
19734;DHT22;10018;51.230;7.860;2022-11-15T00:52:21;10.80;99.90
19734;DHT22;10018;51.230;7.860;2022-11-15T00:54:47;10.80;99.90
19734;DHT22;10018;51.230;7.860;2022-11-15T00:57:12;10.90;99.90
19734;DHT22;10018;51.230;7.860;2022-11-15T00:59:38;11.00;99.90
19734;DHT22;10018;51.230;7.860;2022-11-15T01:02:03;11.00;99.90
19734;DHT22;10018;51.230;7.860;2022-11-15T01:04:29;11.00;99.90
19734;DHT22;10018;51.230;7.860;2022-11-15T01:06:54;11.10;99.90
19734;DHT22;10018;51.230;7.860;2022-11-15T01:09:20;11.10;99.90
19734;DHT22;10018;51.230;7.860;2022-11-15T01:11:45;11.20;99.90
19734;DHT22;10018;51.230;7.860;2022-11-15T01:14:11;11.20;99.90
19734;DHT22;10018;51.230;7.860;2022-11-15T01:16:36;11.20;99.90
19734;DHT22;10018;51.230;7.860;2022-11-15T01:19:02;11.10;99.90
19734;DHT22;10018;51.230;7.860;2022-11-15T01:21:27;11.10;99.90
19734;DHT22;10018;51.230;7.860;2022-11-15T01:23:56;11.10;99.90
19734;DHT22;10018;51.230;7.860;2022-11-15T01:26:23;11.10;99.90
19734;DHT22;10018;51.230;7.860;2022-11-15T01:28:49;11.10;99.90
19734;DHT22;10018;51.230;7.860;2022-11-15T01:31:19;11.20;99.90
19734;DHT22;10018;51.230;7.860;2022-11-15T01:33:45;11.20;99.90
19734;DHT22;10018;51.230;7.860;2022-11-15T01:36:14;11.20;99.90
19734;DHT22;10018;51.230;7.860;2022-11-15T01:38:40;11.20;99.90
19734;DHT22;10018;51.230;7.860;2022-11-15T01:41:05;11.30;99.90
19734;DHT22;10018;51.230;7.860;2022-11-15T01:43:33;11.30;99.90
19734;DHT22;10018;51.230;7.860;2022-11-15T01:46:06;11.30;99.90
19734;DHT22;10018;51.230;7.860;2022-11-15T01:48:33;11.30;99.90
19734;DHT22;10018;51.230;7.860;2022-11-15T01:51:01;11.30;99.90
19734;DHT22;10018;51.230;7.860;2022-11-15T01:53:29;11.30;99.90
19734;DHT22;10018;51.230;7.860;2022-11-15T01:55:57;11.30;99.90
19734;DHT22;10018;51.230;7.860;2022-11-15T01:58:23;11.30;99.90
19734;DHT22;10018;51.230;7.860;2022-11-15T02:00:50;11.30;99.90
19734;DHT22;10018;51.230;7.860;2022-11-15T02:03:16;11.30;99.90
19734;DHT22;10018;51.230;7.860;2022-11-15T02:05:42;11.20;99.90
19734;DHT22;10018;51.230;7.860;2022-11-15T02:08:09;11.20;99.90
19734;DHT22;10018;51.230;7.860;2022-11-15T02:10:45;11.30;99.90
19734;DHT22;10018;51.230;7.860;2022-11-15T02:13:12;11.30;99.90
19734;DHT22;10018;51.230;7.860;2022-11-15T02:18:29;11.30;99.90
19734;DHT22;10018;51.230;7.860;2022-11-15T02:27:25;11.40;99.90
19734;DHT22;10018;51.230;7.860;2022-11-15T02:32:40;11.40;99.90
19734;DHT22;10018;51.230;7.860;2022-11-15T02:35:28;11.30;99.90
19734;DHT22;10018;51.230;7.860;2022-11-15T02:38:22;11.40;99.90
19734;DHT22;10018;51.230;7.860;2022-11-15T02:41:20;11.30;99.90
19734;DHT22;10018;51.230;7.860;2022-11-15T02:44:03;11.40;99.90
19734;DHT22;10018;51.230;7.860;2022-11-15T02:46:57;11.40;99.90
19734;DHT22;10018;51.230;7.860;2022-11-15T02:49:41;11.40;99.90
19734;DHT22;10018;51.230;7.860;2022-11-15T02:52:08;11.50;99.90
19734;DHT22;10018;51.230;7.860;2022-11-15T02:54:34;11.60;99.90
19734;DHT22;10018;51.230;7.860;2022-11-15T02:57:07;11.60;99.90
19734;DHT22;10018;51.230;7.860;2022-11-15T03:02:52;11.60;99.90
19734;DHT22;10018;51.230;7.860;2022-11-15T03:05:46;11.60;99.90
19734;DHT22;10018;51.230;7.860;2022-11-15T03:08:32;11.60;99.90
19734;DHT22;10018;51.230;7.860;2022-11-15T03:11:11;11.70;99.90
19734;DHT22;10018;51.230;7.860;2022-11-15T03:14:03;11.70;99.90
19734;DHT22;10018;51.230;7.860;2022-11-15T03:16:38;11.80;99.90
19734;DHT22;10018;51.230;7.860;2022-11-15T03:19:08;11.80;99.90
19734;DHT22;10018;51.230;7.860;2022-11-15T03:21:37;11.80;99.90
19734;DHT22;10018;51.230;7.860;2022-11-15T03:24:06;11.80;99.90
19734;DHT22;10018;51.230;7.860;2022-11-15T03:26:34;11.80;99.90
19734;DHT22;10018;51.230;7.860;2022-11-15T03:29:29;11.80;99.90
19734;DHT22;10018;51.230;7.860;2022-11-15T03:31:58;11.80;99.90
19734;DHT22;10018;51.230;7.860;2022-11-15T03:34:46;11.80;99.90
19734;DHT22;10018;51.230;7.860;2022-11-15T03:37:14;11.80;99.90
19734;DHT22;10018;51.230;7.860;2022-11-15T03:39:41;11.70;99.90
19734;DHT22;10018;51.230;7.860;2022-11-15T03:42:28;11.70;99.90
19734;DHT22;10018;51.230;7.860;2022-11-15T03:45:02;11.70;99.90
19734;DHT22;10018;51.230;7.860;2022-11-15T03:47:35;11.70;99.90
19734;DHT22;10018;51.230;7.860;2022-11-15T03:50:08;11.70;99.90
19734;DHT22;10018;51.230;7.860;2022-11-15T03:52:36;11.70;99.90
19734;DHT22;10018;51.230;7.860;2022-11-15T03:55:04;11.70;99.90
19734;DHT22;10018;51.230;7.860;2022-11-15T03:57:31;11.90;99.90
19734;DHT22;10018;51.230;7.860;2022-11-15T03:59:56;11.80;99.90
19734;DHT22;10018;51.230;7.860;2022-11-15T04:02:22;11.90;99.90
19734;DHT22;10018;51.230;7.860;2022-11-15T04:04:47;11.90;99.90
19734;DHT22;10018;51.230;7.860;2022-11-15T04:07:13;11.90;99.90
19734;DHT22;10018;51.230;7.860;2022-11-15T04:09:38;11.90;99.90
19734;DHT22;10018;51.230;7.860;2022-11-15T04:12:24;11.90;99.90
19734;DHT22;10018;51.230;7.860;2022-11-15T04:14:57;12.00;99.90
19734;DHT22;10018;51.230;7.860;2022-11-15T04:17:37;11.90;99.90
19734;DHT22;10018;51.230;7.860;2022-11-15T04:20:04;11.80;99.90
19734;DHT22;10018;51.230;7.860;2022-11-15T04:22:54;11.90;99.90
19734;DHT22;10018;51.230;7.860;2022-11-15T04:25:39;11.90;99.90
19734;DHT22;10018;51.230;7.860;2022-11-15T04:28:05;11.90;99.90
19734;DHT22;10018;51.230;7.860;2022-11-15T04:30:30;11.90;99.90
19734;DHT22;10018;51.230;7.860;2022-11-15T04:32:56;11.90;99.90
19734;DHT22;10018;51.230;7.860;2022-11-15T04:35:21;11.90;99.90
19734;DHT22;10018;51.230;7.860;2022-11-15T04:37:47;11.90;99.90
19734;DHT22;10018;51.230;7.860;2022-11-15T04:40:12;11.90;99.90
19734;DHT22;10018;51.230;7.860;2022-11-15T04:42:40;11.90;99.90
19734;DHT22;10018;51.230;7.860;2022-11-15T04:45:07;11.90;99.90
19734;DHT22;10018;51.230;7.860;2022-11-15T04:47:32;11.90;99.90
19734;DHT22;10018;51.230;7.860;2022-11-15T04:49:58;11.90;99.90
19734;DHT22;10018;51.230;7.860;2022-11-15T04:52:23;11.90;99.90
19734;DHT22;10018;51.230;7.860;2022-11-15T04:54:49;11.90;99.90
19734;DHT22;10018;51.230;7.860;2022-11-15T04:57:14;11.80;99.90
19734;DHT22;10018;51.230;7.860;2022-11-15T04:59:40;11.90;99.90
19734;DHT22;10018;51.230;7.860;2022-11-15T05:02:05;11.90;99.90
19734;DHT22;10018;51.230;7.860;2022-11-15T05:04:31;11.80;99.90
19734;DHT22;10018;51.230;7.860;2022-11-15T05:06:56;11.80;99.90
19734;DHT22;10018;51.230;7.860;2022-11-15T05:09:22;11.80;99.90
19734;DHT22;10018;51.230;7.860;2022-11-15T05:11:48;11.80;99.90
19734;DHT22;10018;51.230;7.860;2022-11-15T05:14:13;11.90;99.90
19734;DHT22;10018;51.230;7.860;2022-11-15T05:16:39;11.80;99.90
19734;DHT22;10018;51.230;7.860;2022-11-15T05:19:05;11.80;99.90
19734;DHT22;10018;51.230;7.860;2022-11-15T05:21:31;11.80;99.90
19734;DHT22;10018;51.230;7.860;2022-11-15T05:23:57;11.80;99.90
19734;DHT22;10018;51.230;7.860;2022-11-15T05:26:23;11.80;99.90
19734;DHT22;10018;51.230;7.860;2022-11-15T05:28:53;11.80;99.90
19734;DHT22;10018;51.230;7.860;2022-11-15T05:31:19;11.70;99.90
19734;DHT22;10018;51.230;7.860;2022-11-15T05:33:45;11.70;99.90
19734;DHT22;10018;51.230;7.860;2022-11-15T05:36:31;11.70;99.90
19734;DHT22;10018;51.230;7.860;2022-11-15T05:38:58;11.70;99.90
19734;DHT22;10018;51.230;7.860;2022-11-15T05:41:31;11.70;99.90
19734;DHT22;10018;51.230;7.860;2022-11-15T05:43:58;11.70;99.90
19734;DHT22;10018;51.230;7.860;2022-11-15T05:46:24;11.70;99.90
19734;DHT22;10018;51.230;7.860;2022-11-15T05:48:51;11.70;99.90
19734;DHT22;10018;51.230;7.860;2022-11-15T05:51:19;11.70;99.90
19734;DHT22;10018;51.230;7.860;2022-11-15T05:53:46;11.70;99.90
19734;DHT22;10018;51.230;7.860;2022-11-15T05:56:12;11.70;99.90
19734;DHT22;10018;51.230;7.860;2022-11-15T05:58:38;11.80;99.90
19734;DHT22;10018;51.230;7.860;2022-11-15T06:01:04;11.90;99.90
19734;DHT22;10018;51.230;7.860;2022-11-15T06:03:29;11.80;99.90
19734;DHT22;10018;51.230;7.860;2022-11-15T06:05:56;11.80;99.90
19734;DHT22;10018;51.230;7.860;2022-11-15T06:08:22;11.80;99.90
19734;DHT22;10018;51.230;7.860;2022-11-15T06:10:47;11.80;99.90
19734;DHT22;10018;51.230;7.860;2022-11-15T06:13:13;11.80;99.90
19734;DHT22;10018;51.230;7.860;2022-11-15T06:15:38;11.80;99.90
19734;DHT22;10018;51.230;7.860;2022-11-15T06:18:04;11.80;99.90
19734;DHT22;10018;51.230;7.860;2022-11-15T06:20:30;11.80;99.90
19734;DHT22;10018;51.230;7.860;2022-11-15T06:23:00;11.80;99.90
19734;DHT22;10018;51.230;7.860;2022-11-15T06:25:27;11.80;99.90
19734;DHT22;10018;51.230;7.860;2022-11-15T06:27:54;11.80;99.90
19734;DHT22;10018;51.230;7.860;2022-11-15T06:30:20;11.90;99.90
19734;DHT22;10018;51.230;7.860;2022-11-15T06:32:46;11.90;99.90
19734;DHT22;10018;51.230;7.860;2022-11-15T06:35:12;11.90;99.90
19734;DHT22;10018;51.230;7.860;2022-11-15T06:37:38;11.90;99.90
19734;DHT22;10018;51.230;7.860;2022-11-15T06:40:04;12.00;99.90
19734;DHT22;10018;51.230;7.860;2022-11-15T06:42:29;12.00;99.90
19734;DHT22;10018;51.230;7.860;2022-11-15T06:44:55;12.00;99.90
19734;DHT22;10018;51.230;7.860;2022-11-15T06:47:20;12.00;99.90
19734;DHT22;10018;51.230;7.860;2022-11-15T06:49:46;12.00;99.90
19734;DHT22;10018;51.230;7.860;2022-11-15T06:52:11;11.90;99.90
19734;DHT22;10018;51.230;7.860;2022-11-15T06:54:37;12.00;99.90
19734;DHT22;10018;51.230;7.860;2022-11-15T06:57:04;12.00;99.90
19734;DHT22;10018;51.230;7.860;2022-11-15T06:59:29;11.90;99.90
19734;DHT22;10018;51.230;7.860;2022-11-15T07:01:55;12.00;99.90
19734;DHT22;10018;51.230;7.860;2022-11-15T07:04:20;12.00;99.90
19734;DHT22;10018;51.230;7.860;2022-11-15T07:06:47;12.00;99.90
19734;DHT22;10018;51.230;7.860;2022-11-15T07:09:13;12.00;99.90
19734;DHT22;10018;51.230;7.860;2022-11-15T07:11:38;12.00;99.90
19734;DHT22;10018;51.230;7.860;2022-11-15T07:14:04;12.00;99.90
19734;DHT22;10018;51.230;7.860;2022-11-15T07:16:29;12.00;99.90
19734;DHT22;10018;51.230;7.860;2022-11-15T07:18:55;12.00;99.90
19734;DHT22;10018;51.230;7.860;2022-11-15T07:21:21;11.90;99.90
19734;DHT22;10018;51.230;7.860;2022-11-15T07:23:46;11.90;99.90
19734;DHT22;10018;51.230;7.860;2022-11-15T07:26:12;11.90;99.90
19734;DHT22;10018;51.230;7.860;2022-11-15T07:28:37;11.90;99.90
19734;DHT22;10018;51.230;7.860;2022-11-15T07:31:05;11.90;99.90
19734;DHT22;10018;51.230;7.860;2022-11-15T07:33:31;12.10;99.90
19734;DHT22;10018;51.230;7.860;2022-11-15T07:35:59;12.10;99.90
19734;DHT22;10018;51.230;7.860;2022-11-15T07:38:27;12.10;99.90
19734;DHT22;10018;51.230;7.860;2022-11-15T07:40:57;12.00;99.90
19734;DHT22;10018;51.230;7.860;2022-11-15T07:43:23;12.00;99.90
19734;DHT22;10018;51.230;7.860;2022-11-15T07:45:48;12.20;99.90
19734;DHT22;10018;51.230;7.860;2022-11-15T07:48:14;12.20;99.90
19734;DHT22;10018;51.230;7.860;2022-11-15T07:50:43;12.00;99.90
19734;DHT22;10018;51.230;7.860;2022-11-15T07:53:09;12.00;99.90
19734;DHT22;10018;51.230;7.860;2022-11-15T07:55:36;12.00;99.90
19734;DHT22;10018;51.230;7.860;2022-11-15T07:58:06;11.90;99.90
19734;DHT22;10018;51.230;7.860;2022-11-15T08:00:32;11.90;99.90
19734;DHT22;10018;51.230;7.860;2022-11-15T08:03:07;12.00;99.90
19734;DHT22;10018;51.230;7.860;2022-11-15T08:05:34;11.90;99.90
19734;DHT22;10018;51.230;7.860;2022-11-15T08:08:00;11.90;99.90
19734;DHT22;10018;51.230;7.860;2022-11-15T08:10:26;11.90;99.90
19734;DHT22;10018;51.230;7.860;2022-11-15T08:13:12;11.90;99.90
19734;DHT22;10018;51.230;7.860;2022-11-15T08:15:38;11.90;99.90
19734;DHT22;10018;51.230;7.860;2022-11-15T08:18:06;11.90;99.90
19734;DHT22;10018;51.230;7.860;2022-11-15T08:20:32;11.90;99.90
19734;DHT22;10018;51.230;7.860;2022-11-15T08:23:00;11.90;99.90
19734;DHT22;10018;51.230;7.860;2022-11-15T08:25:28;11.90;99.90
19734;DHT22;10018;51.230;7.860;2022-11-15T08:27:55;11.90;99.90
19734;DHT22;10018;51.230;7.860;2022-11-15T08:30:22;11.90;99.90
19734;DHT22;10018;51.230;7.860;2022-11-15T08:32:48;11.90;99.90
19734;DHT22;10018;51.230;7.860;2022-11-15T08:35:14;11.90;99.90
19734;DHT22;10018;51.230;7.860;2022-11-15T08:37:40;11.90;99.90
19734;DHT22;10018;51.230;7.860;2022-11-15T08:40:06;12.00;99.90
19734;DHT22;10018;51.230;7.860;2022-11-15T08:42:32;12.10;99.90
19734;DHT22;10018;51.230;7.860;2022-11-15T08:44:58;12.10;99.90
19734;DHT22;10018;51.230;7.860;2022-11-15T08:47:24;12.10;99.90
19734;DHT22;10018;51.230;7.860;2022-11-15T08:49:50;12.30;99.90
19734;DHT22;10018;51.230;7.860;2022-11-15T08:52:15;12.40;99.90
19734;DHT22;10018;51.230;7.860;2022-11-15T08:54:41;12.40;99.90
19734;DHT22;10018;51.230;7.860;2022-11-15T08:57:07;12.40;99.90
19734;DHT22;10018;51.230;7.860;2022-11-15T08:59:34;12.40;99.90
19734;DHT22;10018;51.230;7.860;2022-11-15T09:02:00;12.40;99.90
19734;DHT22;10018;51.230;7.860;2022-11-15T09:04:26;12.40;99.90
19734;DHT22;10018;51.230;7.860;2022-11-15T09:06:51;12.40;99.90
19734;DHT22;10018;51.230;7.860;2022-11-15T09:09:17;12.40;99.90
19734;DHT22;10018;51.230;7.860;2022-11-15T09:11:42;12.40;99.90
19734;DHT22;10018;51.230;7.860;2022-11-15T09:14:10;12.40;99.90
19734;DHT22;10018;51.230;7.860;2022-11-15T09:16:36;12.40;99.90
19734;DHT22;10018;51.230;7.860;2022-11-15T09:19:02;12.40;99.90
19734;DHT22;10018;51.230;7.860;2022-11-15T09:21:28;12.50;99.90
19734;DHT22;10018;51.230;7.860;2022-11-15T09:23:54;12.50;99.90
19734;DHT22;10018;51.230;7.860;2022-11-15T09:26:20;12.40;99.90
19734;DHT22;10018;51.230;7.860;2022-11-15T09:28:45;12.40;99.90
19734;DHT22;10018;51.230;7.860;2022-11-15T09:31:11;12.50;99.90
19734;DHT22;10018;51.230;7.860;2022-11-15T09:33:36;12.60;99.90
19734;DHT22;10018;51.230;7.860;2022-11-15T09:36:07;12.60;99.90
19734;DHT22;10018;51.230;7.860;2022-11-15T09:38:34;12.60;99.90
19734;DHT22;10018;51.230;7.860;2022-11-15T09:50:11;12.70;99.90
19734;DHT22;10018;51.230;7.860;2022-11-15T09:52:39;12.60;99.90
19734;DHT22;10018;51.230;7.860;2022-11-15T09:55:10;12.70;99.90
19734;DHT22;10018;51.230;7.860;2022-11-15T09:57:44;12.70;99.90
19734;DHT22;10018;51.230;7.860;2022-11-15T10:00:38;12.80;99.90
19734;DHT22;10018;51.230;7.860;2022-11-15T10:03:16;12.80;99.90
19734;DHT22;10018;51.230;7.860;2022-11-15T10:05:51;12.90;99.90
19734;DHT22;10018;51.230;7.860;2022-11-15T10:10:58;13.00;99.90
19734;DHT22;10018;51.230;7.860;2022-11-15T10:13:27;12.90;99.90
19734;DHT22;10018;51.230;7.860;2022-11-15T10:16:01;12.90;99.90
19734;DHT22;10018;51.230;7.860;2022-11-15T10:18:43;12.90;99.90
19734;DHT22;10018;51.230;7.860;2022-11-15T10:21:20;12.90;99.90
19734;DHT22;10018;51.230;7.860;2022-11-15T10:23:47;12.90;99.90
19734;DHT22;10018;51.230;7.860;2022-11-15T10:26:16;12.90;99.90
19734;DHT22;10018;51.230;7.860;2022-11-15T10:28:42;13.00;99.90
19734;DHT22;10018;51.230;7.860;2022-11-15T10:31:26;13.10;99.90
19734;DHT22;10018;51.230;7.860;2022-11-15T10:34:10;13.30;99.90
19734;DHT22;10018;51.230;7.860;2022-11-15T10:36:37;13.10;99.90
19734;DHT22;10018;51.230;7.860;2022-11-15T10:39:03;13.10;99.90
19734;DHT22;10018;51.230;7.860;2022-11-15T10:41:32;13.00;99.90
19734;DHT22;10018;51.230;7.860;2022-11-15T10:44:23;13.10;99.90
19734;DHT22;10018;51.230;7.860;2022-11-15T10:49:25;13.10;99.90
19734;DHT22;10018;51.230;7.860;2022-11-15T10:51:55;13.20;99.90
19734;DHT22;10018;51.230;7.860;2022-11-15T10:57:04;13.10;99.90
19734;DHT22;10018;51.230;7.860;2022-11-15T10:59:32;13.20;99.90
19734;DHT22;10018;51.230;7.860;2022-11-15T11:02:00;13.30;99.90
19734;DHT22;10018;51.230;7.860;2022-11-15T11:04:26;13.40;99.90
19734;DHT22;10018;51.230;7.860;2022-11-15T11:06:57;13.30;99.90
19734;DHT22;10018;51.230;7.860;2022-11-15T11:09:32;13.30;99.90
19734;DHT22;10018;51.230;7.860;2022-11-15T11:11:58;13.40;99.90
19734;DHT22;10018;51.230;7.860;2022-11-15T11:14:27;13.40;99.90
19734;DHT22;10018;51.230;7.860;2022-11-15T11:17:31;13.40;99.90
19734;DHT22;10018;51.230;7.860;2022-11-15T11:25:32;13.40;99.90
19734;DHT22;10018;51.230;7.860;2022-11-15T11:30:49;13.50;99.90
19734;DHT22;10018;51.230;7.860;2022-11-15T11:33:31;13.50;99.90
19734;DHT22;10018;51.230;7.860;2022-11-15T11:36:18;13.50;99.90
19734;DHT22;10018;51.230;7.860;2022-11-15T11:47:05;13.70;99.90
19734;DHT22;10018;51.230;7.860;2022-11-15T11:52:11;13.70;99.90
19734;DHT22;10018;51.230;7.860;2022-11-15T12:02:39;13.80;99.90
19734;DHT22;10018;51.230;7.860;2022-11-15T12:05:35;14.00;99.90
19734;DHT22;10018;51.230;7.860;2022-11-15T12:08:44;14.10;99.90
19734;DHT22;10018;51.230;7.860;2022-11-15T12:13:43;14.20;99.90
19734;DHT22;10018;51.230;7.860;2022-11-15T12:16:22;14.20;99.90
19734;DHT22;10018;51.230;7.860;2022-11-15T12:18:51;14.30;99.90
19734;DHT22;10018;51.230;7.860;2022-11-15T12:24:04;14.10;99.90
19734;DHT22;10018;51.230;7.860;2022-11-15T12:26:39;14.30;99.90
19734;DHT22;10018;51.230;7.860;2022-11-15T12:29:15;14.50;99.90
19734;DHT22;10018;51.230;7.860;2022-11-15T12:31:44;14.60;99.90
19734;DHT22;10018;51.230;7.860;2022-11-15T12:34:37;14.60;99.90
19734;DHT22;10018;51.230;7.860;2022-11-15T12:42:53;14.80;99.90
19734;DHT22;10018;51.230;7.860;2022-11-15T12:45:31;14.70;99.90
19734;DHT22;10018;51.230;7.860;2022-11-15T12:50:53;14.60;99.90
19734;DHT22;10018;51.230;7.860;2022-11-15T12:53:32;14.60;99.90
19734;DHT22;10018;51.230;7.860;2022-11-15T12:59:38;14.50;99.90
19734;DHT22;10018;51.230;7.860;2022-11-15T13:02:01;14.50;99.90
19734;DHT22;10018;51.230;7.860;2022-11-15T13:04:28;14.30;99.90
19734;DHT22;10018;51.230;7.860;2022-11-15T13:07:04;14.30;99.90
19734;DHT22;10018;51.230;7.860;2022-11-15T13:14:59;14.60;99.90
19734;DHT22;10018;51.230;7.860;2022-11-15T13:22:40;14.70;99.90
19734;DHT22;10018;51.230;7.860;2022-11-15T13:27:53;14.70;99.90
19734;DHT22;10018;51.230;7.860;2022-11-15T13:30:25;14.70;99.90
19734;DHT22;10018;51.230;7.860;2022-11-15T13:32:51;14.60;99.90
19734;DHT22;10018;51.230;7.860;2022-11-15T13:35:28;14.50;99.90
19734;DHT22;10018;51.230;7.860;2022-11-15T13:37:56;14.50;99.90
19734;DHT22;10018;51.230;7.860;2022-11-15T13:40:27;14.40;99.90
19734;DHT22;10018;51.230;7.860;2022-11-15T13:42:56;14.30;99.90
19734;DHT22;10018;51.230;7.860;2022-11-15T13:45:23;14.10;99.90
19734;DHT22;10018;51.230;7.860;2022-11-15T13:47:56;14.10;99.90
19734;DHT22;10018;51.230;7.860;2022-11-15T13:50:26;14.00;99.90
19734;DHT22;10018;51.230;7.860;2022-11-15T13:52:53;14.00;99.90
19734;DHT22;10018;51.230;7.860;2022-11-15T13:55:21;14.00;99.90
19734;DHT22;10018;51.230;7.860;2022-11-15T13:57:54;13.90;99.90
19734;DHT22;10018;51.230;7.860;2022-11-15T14:00:39;13.90;99.90
19734;DHT22;10018;51.230;7.860;2022-11-15T14:03:39;14.00;99.90
19734;DHT22;10018;51.230;7.860;2022-11-15T14:06:12;13.90;99.90
19734;DHT22;10018;51.230;7.860;2022-11-15T14:11:25;13.80;99.90
19734;DHT22;10018;51.230;7.860;2022-11-15T14:19:09;13.70;99.90
19734;DHT22;10018;51.230;7.860;2022-11-15T14:21:35;13.70;99.90
19734;DHT22;10018;51.230;7.860;2022-11-15T14:24:33;13.70;99.90
19734;DHT22;10018;51.230;7.860;2022-11-15T14:29:41;13.70;99.90
19734;DHT22;10018;51.230;7.860;2022-11-15T14:32:20;13.70;99.90
19734;DHT22;10018;51.230;7.860;2022-11-15T14:34:46;13.60;99.90
19734;DHT22;10018;51.230;7.860;2022-11-15T14:37:24;13.50;99.90
19734;DHT22;10018;51.230;7.860;2022-11-15T14:39:50;13.50;99.90
19734;DHT22;10018;51.230;7.860;2022-11-15T14:42:16;13.50;99.90
19734;DHT22;10018;51.230;7.860;2022-11-15T14:44:42;13.40;99.90
19734;DHT22;10018;51.230;7.860;2022-11-15T14:47:08;13.40;99.90
19734;DHT22;10018;51.230;7.860;2022-11-15T14:49:33;13.30;99.90
19734;DHT22;10018;51.230;7.860;2022-11-15T14:51:59;13.30;99.90
19734;DHT22;10018;51.230;7.860;2022-11-15T14:54:24;13.20;99.90
19734;DHT22;10018;51.230;7.860;2022-11-15T14:56:50;13.20;99.90
19734;DHT22;10018;51.230;7.860;2022-11-15T14:59:15;13.10;99.90
19734;DHT22;10018;51.230;7.860;2022-11-15T15:01:41;13.10;99.90
19734;DHT22;10018;51.230;7.860;2022-11-15T15:04:08;13.00;99.90
19734;DHT22;10018;51.230;7.860;2022-11-15T15:06:34;13.00;99.90
19734;DHT22;10018;51.230;7.860;2022-11-15T15:08:59;12.90;99.90
19734;DHT22;10018;51.230;7.860;2022-11-15T15:11:30;12.90;99.90
19734;DHT22;10018;51.230;7.860;2022-11-15T15:13:56;12.90;99.90
19734;DHT22;10018;51.230;7.860;2022-11-15T15:16:24;12.90;99.90
19734;DHT22;10018;51.230;7.860;2022-11-15T15:18:50;12.80;99.90
19734;DHT22;10018;51.230;7.860;2022-11-15T15:21:24;12.80;99.90
19734;DHT22;10018;51.230;7.860;2022-11-15T15:23:50;12.80;99.90
19734;DHT22;10018;51.230;7.860;2022-11-15T15:26:16;12.70;99.90
19734;DHT22;10018;51.230;7.860;2022-11-15T15:28:42;12.70;99.90
19734;DHT22;10018;51.230;7.860;2022-11-15T15:31:09;12.60;99.90
19734;DHT22;10018;51.230;7.860;2022-11-15T15:33:34;12.60;99.90
19734;DHT22;10018;51.230;7.860;2022-11-15T15:36:00;12.50;99.90
19734;DHT22;10018;51.230;7.860;2022-11-15T15:38:26;12.50;99.90
19734;DHT22;10018;51.230;7.860;2022-11-15T15:40:51;12.40;99.90
19734;DHT22;10018;51.230;7.860;2022-11-15T15:43:17;12.30;99.90
19734;DHT22;10018;51.230;7.860;2022-11-15T15:45:42;12.10;99.90
19734;DHT22;10018;51.230;7.860;2022-11-15T15:48:12;12.10;99.90
19734;DHT22;10018;51.230;7.860;2022-11-15T15:50:38;12.00;99.90
19734;DHT22;10018;51.230;7.860;2022-11-15T15:53:04;12.00;99.90
19734;DHT22;10018;51.230;7.860;2022-11-15T15:55:30;12.00;99.90
19734;DHT22;10018;51.230;7.860;2022-11-15T15:57:56;11.90;99.90
19734;DHT22;10018;51.230;7.860;2022-11-15T16:00:23;11.90;99.90
19734;DHT22;10018;51.230;7.860;2022-11-15T16:02:50;11.80;99.90
19734;DHT22;10018;51.230;7.860;2022-11-15T16:05:15;11.90;99.90
19734;DHT22;10018;51.230;7.860;2022-11-15T16:07:42;11.90;99.90
19734;DHT22;10018;51.230;7.860;2022-11-15T16:10:21;11.90;99.90
19734;DHT22;10018;51.230;7.860;2022-11-15T16:12:48;11.90;99.90
19734;DHT22;10018;51.230;7.860;2022-11-15T16:15:14;11.90;99.90
19734;DHT22;10018;51.230;7.860;2022-11-15T16:17:42;11.90;99.90
19734;DHT22;10018;51.230;7.860;2022-11-15T16:22:55;11.80;99.90
19734;DHT22;10018;51.230;7.860;2022-11-15T16:25:21;11.80;99.90
19734;DHT22;10018;51.230;7.860;2022-11-15T16:27:46;11.90;99.90
19734;DHT22;10018;51.230;7.860;2022-11-15T16:30:19;11.90;99.90
19734;DHT22;10018;51.230;7.860;2022-11-15T16:32:45;11.80;99.90
19734;DHT22;10018;51.230;7.860;2022-11-15T16:35:11;11.90;99.90
19734;DHT22;10018;51.230;7.860;2022-11-15T16:37:41;11.80;99.90
19734;DHT22;10018;51.230;7.860;2022-11-15T16:40:23;11.70;99.90
19734;DHT22;10018;51.230;7.860;2022-11-15T16:42:49;11.70;99.90
19734;DHT22;10018;51.230;7.860;2022-11-15T16:45:15;11.70;99.90
19734;DHT22;10018;51.230;7.860;2022-11-15T16:47:41;11.60;99.90
19734;DHT22;10018;51.230;7.860;2022-11-15T16:50:21;11.60;99.90
19734;DHT22;10018;51.230;7.860;2022-11-15T16:52:55;11.50;99.90
19734;DHT22;10018;51.230;7.860;2022-11-15T16:55:22;11.40;99.90
19734;DHT22;10018;51.230;7.860;2022-11-15T16:57:48;11.40;99.90
19734;DHT22;10018;51.230;7.860;2022-11-15T17:00:16;11.50;99.90
19734;DHT22;10018;51.230;7.860;2022-11-15T17:02:43;11.50;99.90
19734;DHT22;10018;51.230;7.860;2022-11-15T17:05:09;11.40;99.90
19734;DHT22;10018;51.230;7.860;2022-11-15T17:07:35;11.40;99.90
19734;DHT22;10018;51.230;7.860;2022-11-15T17:10:00;11.40;99.90
19734;DHT22;10018;51.230;7.860;2022-11-15T17:12:26;11.40;99.90
19734;DHT22;10018;51.230;7.860;2022-11-15T17:14:51;11.40;99.90
19734;DHT22;10018;51.230;7.860;2022-11-15T17:17:17;11.50;99.90
19734;DHT22;10018;51.230;7.860;2022-11-15T17:19:42;11.50;99.90
19734;DHT22;10018;51.230;7.860;2022-11-15T17:22:08;11.60;99.90
19734;DHT22;10018;51.230;7.860;2022-11-15T17:24:33;11.60;99.90
19734;DHT22;10018;51.230;7.860;2022-11-15T17:26:59;11.60;99.90